sensor_id;sensor_type;location;lat;lon;timestamp;pressure;altitude;pressure_sealevel;temperature;humidity
11692;BME280;33659;42.672;23.354;2024-03-29T00:00:36;68570.66;;;14.79;45.70
11692;BME280;33659;42.672;23.354;2024-03-29T00:03:02;68571.31;;;14.82;45.51
11692;BME280;33659;42.672;23.354;2024-03-29T00:05:28;68568.59;;;14.80;45.60
11692;BME280;33659;42.672;23.354;2024-03-29T00:07:53;68573.38;;;14.82;45.38
11692;BME280;33659;42.672;23.354;2024-03-29T00:10:19;68574.00;;;14.85;45.44
11692;BME280;33659;42.672;23.354;2024-03-29T00:12:46;68572.94;;;14.84;45.16
11692;BME280;33659;42.672;23.354;2024-03-29T00:15:12;68563.81;;;14.78;45.11
11692;BME280;33659;42.672;23.354;2024-03-29T00:17:38;68561.53;;;14.73;45.13
11692;BME280;33659;42.672;23.354;2024-03-29T00:20:05;68557.72;;;14.70;44.99
11692;BME280;33659;42.672;23.354;2024-03-29T00:22:31;68549.03;;;14.61;45.17
11692;BME280;33659;42.672;23.354;2024-03-29T00:24:57;68536.03;;;14.49;45.24
11692;BME280;33659;42.672;23.354;2024-03-29T00:27:23;68529.91;;;14.41;45.43
11692;BME280;33659;42.672;23.354;2024-03-29T00:29:50;68518.19;;;14.35;45.53
11692;BME280;33659;42.672;23.354;2024-03-29T00:32:15;68520.69;;;14.32;45.41
11692;BME280;33659;42.672;23.354;2024-03-29T00:34:41;68512.66;;;14.27;45.62
11692;BME280;33659;42.672;23.354;2024-03-29T00:37:07;68503.00;;;14.21;45.46
11692;BME280;33659;42.672;23.354;2024-03-29T00:39:33;68512.13;;;14.27;45.44
11692;BME280;33659;42.672;23.354;2024-03-29T00:41:58;68515.94;;;14.30;45.23
11692;BME280;33659;42.672;23.354;2024-03-29T00:44:24;68527.31;;;14.41;45.25
11692;BME280;33659;42.672;23.354;2024-03-29T00:46:51;68526.75;;;14.41;45.11
11692;BME280;33659;42.672;23.354;2024-03-29T00:49:17;68534.94;;;14.48;45.34
11692;BME280;33659;42.672;23.354;2024-03-29T00:51:42;68529.50;;;14.43;45.34
11692;BME280;33659;42.672;23.354;2024-03-29T00:54:08;68536.13;;;14.52;45.07
11692;BME280;33659;42.672;23.354;2024-03-29T00:56:34;68534.94;;;14.48;45.01
11692;BME280;33659;42.672;23.354;2024-03-29T00:58:59;68534.50;;;14.50;44.75
11692;BME280;33659;42.672;23.354;2024-03-29T01:01:25;68535.59;;;14.51;45.01
11692;BME280;33659;42.672;23.354;2024-03-29T01:03:52;68530.16;;;14.46;45.15
11692;BME280;33659;42.672;23.354;2024-03-29T01:06:18;68531.13;;;14.45;45.09
11692;BME280;33659;42.672;23.354;2024-03-29T01:08:44;68524.59;;;14.39;45.42
11692;BME280;33659;42.672;23.354;2024-03-29T01:11:09;68529.50;;;14.43;45.21
11692;BME280;33659;42.672;23.354;2024-03-29T01:13:35;68526.44;;;14.45;45.11
11692;BME280;33659;42.672;23.354;2024-03-29T01:16:01;68529.06;;;14.45;45.15
11692;BME280;33659;42.672;23.354;2024-03-29T01:18:26;68534.94;;;14.48;45.15
11692;BME280;33659;42.672;23.354;2024-03-29T01:20:53;68528.50;;;14.45;45.18
11692;BME280;33659;42.672;23.354;2024-03-29T01:23:19;68537.09;;;14.50;45.12
11692;BME280;33659;42.672;23.354;2024-03-29T01:25:45;68543.63;;;14.56;45.24
11692;BME280;33659;42.672;23.354;2024-03-29T01:28:11;68549.03;;;14.61;45.17
11692;BME280;33659;42.672;23.354;2024-03-29T01:30:36;68549.03;;;14.61;45.53
11692;BME280;33659;42.672;23.354;2024-03-29T01:33:02;68545.78;;;14.58;45.60
11692;BME280;33659;42.672;23.354;2024-03-29T01:35:28;68521.88;;;14.36;46.22
11692;BME280;33659;42.672;23.354;2024-03-29T01:37:55;68487.72;;;14.04;47.25
11692;BME280;33659;42.672;23.354;2024-03-29T01:40:21;68469.81;;;13.87;47.76
11692;BME280;33659;42.672;23.354;2024-03-29T01:42:46;68461.13;;;13.79;47.85
11692;BME280;33659;42.672;23.354;2024-03-29T01:45:12;68457.97;;;13.78;48.08
11692;BME280;33659;42.672;23.354;2024-03-29T01:47:39;68465.03;;;13.85;48.07
11692;BME280;33659;42.672;23.354;2024-03-29T01:50:06;68482.28;;;13.99;47.41
11692;BME280;33659;42.672;23.354;2024-03-29T01:52:33;68486.06;;;14.02;47.38
11692;BME280;33659;42.672;23.354;2024-03-29T01:55:01;68481.75;;;13.98;47.20
11692;BME280;33659;42.672;23.354;2024-03-29T01:57:28;68476.31;;;13.93;47.34
11692;BME280;33659;42.672;23.354;2024-03-29T01:59:55;68476.84;;;13.94;48.02
11692;BME280;33659;42.672;23.354;2024-03-29T02:02:23;68490.41;;;14.06;47.95
11692;BME280;33659;42.672;23.354;2024-03-29T02:04:50;68500.72;;;14.16;47.87
11692;BME280;33659;42.672;23.354;2024-03-29T02:07:17;68517.56;;;14.32;47.50
11692;BME280;33659;42.672;23.354;2024-03-29T02:09:43;68530.03;;;14.44;46.86
11692;BME280;33659;42.672;23.354;2024-03-29T02:12:11;68543.63;;;14.56;46.31
11692;BME280;33659;42.672;23.354;2024-03-29T02:14:38;68552.41;;;14.67;45.77
11692;BME280;33659;42.672;23.354;2024-03-29T02:17:06;68552.94;;;14.68;45.48
11692;BME280;33659;42.672;23.354;2024-03-29T02:19:32;68566.97;;;14.78;45.12
11692;BME280;33659;42.672;23.354;2024-03-29T02:22:00;68571.84;;;14.83;44.96
11692;BME280;33659;42.672;23.354;2024-03-29T02:24:29;68570.75;;;14.82;44.93
11692;BME280;33659;42.672;23.354;2024-03-29T02:26:56;68560.97;;;14.73;44.99
11692;BME280;33659;42.672;23.354;2024-03-29T02:29:23;68556.66;;;14.69;45.27
11692;BME280;33659;42.672;23.354;2024-03-29T02:31:50;68541.44;;;14.54;45.42
11692;BME280;33659;42.672;23.354;2024-03-29T02:34:17;68534.50;;;14.50;45.84
11692;BME280;33659;42.672;23.354;2024-03-29T02:36:44;68526.22;;;14.40;45.83
11692;BME280;33659;42.672;23.354;2024-03-29T02:39:11;68525.69;;;14.40;46.17
11692;BME280;33659;42.672;23.354;2024-03-29T02:41:39;68518.19;;;14.35;46.34
11692;BME280;33659;42.672;23.354;2024-03-29T02:44:05;68516.56;;;14.33;46.40
11692;BME280;33659;42.672;23.354;2024-03-29T02:46:32;68519.16;;;14.33;46.27
11692;BME280;33659;42.672;23.354;2024-03-29T02:48:59;68523.63;;;14.40;46.41
11692;BME280;33659;42.672;23.354;2024-03-29T02:51:25;68517.56;;;14.32;46.40
11692;BME280;33659;42.672;23.354;2024-03-29T02:53:51;68504.63;;;14.22;46.75
11692;BME280;33659;42.672;23.354;2024-03-29T02:56:18;68501.81;;;14.17;46.93
11692;BME280;33659;42.672;23.354;2024-03-29T02:58:48;68497.03;;;14.15;47.09
11692;BME280;33659;42.672;23.354;2024-03-29T03:01:14;68494.78;;;14.11;47.51
11692;BME280;33659;42.672;23.354;2024-03-29T03:03:40;68490.41;;;14.06;47.47
11692;BME280;33659;42.672;23.354;2024-03-29T03:06:07;68469.47;;;13.92;47.73
11692;BME280;33659;42.672;23.354;2024-03-29T03:08:32;68468.72;;;13.86;47.94
11692;BME280;33659;42.672;23.354;2024-03-29T03:11:17;68463.28;;;13.81;47.97
11692;BME280;33659;42.672;23.354;2024-03-29T03:13:43;68462.31;;;13.82;48.16
11692;BME280;33659;42.672;23.354;2024-03-29T03:16:11;68454.19;;;13.75;48.01
11692;BME280;33659;42.672;23.354;2024-03-29T03:18:37;68450.38;;;13.71;48.36
11692;BME280;33659;42.672;23.354;2024-03-29T03:21:04;68445.94;;;13.65;48.51
11692;BME280;33659;42.672;23.354;2024-03-29T03:23:30;68432.50;;;13.54;48.76
11692;BME280;33659;42.672;23.354;2024-03-29T03:25:58;68429.75;;;13.52;48.88
11692;BME280;33659;42.672;23.354;2024-03-29T03:28:24;68429.75;;;13.52;49.25
11692;BME280;33659;42.672;23.354;2024-03-29T03:30:51;68421.63;;;13.44;49.03
11692;BME280;33659;42.672;23.354;2024-03-29T03:33:19;68408.19;;;13.34;49.49
11692;BME280;33659;42.672;23.354;2024-03-29T03:35:46;68409.06;;;13.30;49.68
11692;BME280;33659;42.672;23.354;2024-03-29T03:38:12;68412.84;;;13.34;49.46
11692;BME280;33659;42.672;23.354;2024-03-29T03:40:39;68412.97;;;13.36;49.65
11692;BME280;33659;42.672;23.354;2024-03-29T03:43:05;68415.13;;;13.38;49.43
11692;BME280;33659;42.672;23.354;2024-03-29T03:45:34;68417.31;;;13.40;49.29
11692;BME280;33659;42.672;23.354;2024-03-29T03:48:00;68421.63;;;13.44;49.54
11692;BME280;33659;42.672;23.354;2024-03-29T03:50:28;68426.41;;;13.46;49.31
11692;BME280;33659;42.672;23.354;2024-03-29T03:52:54;68428.59;;;13.48;49.04
11692;BME280;33659;42.672;23.354;2024-03-29T03:55:21;68423.25;;;13.46;49.10
11692;BME280;33659;42.672;23.354;2024-03-29T03:57:46;68425.97;;;13.48;49.14
11692;BME280;33659;42.672;23.354;2024-03-29T04:00:13;68429.66;;;13.49;49.23
11692;BME280;33659;42.672;23.354;2024-03-29T04:02:39;68431.41;;;13.53;49.03
11692;BME280;33659;42.672;23.354;2024-03-29T04:05:07;68432.38;;;13.52;49.12
11692;BME280;33659;42.672;23.354;2024-03-29T04:07:34;68432.38;;;13.52;49.05
11692;BME280;33659;42.672;23.354;2024-03-29T04:10:01;68430.97;;;13.55;49.09
11692;BME280;33659;42.672;23.354;2024-03-29T04:12:26;68432.50;;;13.54;49.07
11692;BME280;33659;42.672;23.354;2024-03-29T04:14:53;68448.09;;;13.67;48.83
11692;BME280;33659;42.672;23.354;2024-03-29T04:17:19;68457.41;;;13.78;48.69
11692;BME280;33659;42.672;23.354;2024-03-29T04:19:45;68470.88;;;13.88;48.48
11692;BME280;33659;42.672;23.354;2024-03-29T04:22:11;68480.63;;;13.97;48.44
11692;BME280;33659;42.672;23.354;2024-03-29T04:24:39;68462.84;;;13.83;49.06
11692;BME280;33659;42.672;23.354;2024-03-29T04:27:05;68437.78;;;13.57;49.63
11692;BME280;33659;42.672;23.354;2024-03-29T04:29:31;68406.91;;;13.28;50.09
11692;BME280;33659;42.672;23.354;2024-03-29T04:31:57;68399.31;;;13.21;50.45
11692;BME280;33659;42.672;23.354;2024-03-29T04:34:24;68386.38;;;13.11;50.46
11692;BME280;33659;42.672;23.354;2024-03-29T04:36:49;68392.88;;;13.17;50.40
11692;BME280;33659;42.672;23.354;2024-03-29T04:39:16;68408.50;;;13.30;50.04
11692;BME280;33659;42.672;23.354;2024-03-29T04:41:44;68430.19;;;13.50;49.34
11692;BME280;33659;42.672;23.354;2024-03-29T04:44:11;68448.22;;;13.69;48.82
11692;BME280;33659;42.672;23.354;2024-03-29T04:46:39;68465.56;;;13.86;48.25
11692;BME280;33659;42.672;23.354;2024-03-29T04:49:05;68481.75;;;13.98;48.16
11692;BME280;33659;42.672;23.354;2024-03-29T04:51:32;68501.25;;;14.17;47.71
11692;BME280;33659;42.672;23.354;2024-03-29T04:53:59;68521.88;;;14.36;47.51
11692;BME280;33659;42.672;23.354;2024-03-29T04:56:25;68531.66;;;14.45;47.57
11692;BME280;33659;42.672;23.354;2024-03-29T04:58:54;68530.16;;;14.46;47.45
11692;BME280;33659;42.672;23.354;2024-03-29T05:01:21;68527.31;;;14.41;47.32
11692;BME280;33659;42.672;23.354;2024-03-29T05:03:47;68518.63;;;14.33;47.80
11692;BME280;33659;42.672;23.354;2024-03-29T05:06:14;68500.94;;;14.21;47.69
11692;BME280;33659;42.672;23.354;2024-03-29T05:08:41;68493.66;;;14.09;47.78
11692;BME280;33659;42.672;23.354;2024-03-29T05:11:07;68481.75;;;13.98;48.82
11692;BME280;33659;42.672;23.354;2024-03-29T05:13:36;68475.78;;;13.93;48.40
11692;BME280;33659;42.672;23.354;2024-03-29T05:16:05;68469.81;;;13.87;48.34
11692;BME280;33659;42.672;23.354;2024-03-29T05:18:32;68464.38;;;13.82;48.61
11692;BME280;33659;42.672;23.354;2024-03-29T05:20:59;68471.44;;;13.89;48.64
11692;BME280;33659;42.672;23.354;2024-03-29T05:23:25;68479.69;;;13.99;48.48
11692;BME280;33659;42.672;23.354;2024-03-29T05:25:52;68499.09;;;14.15;48.29
11692;BME280;33659;42.672;23.354;2024-03-29T05:28:19;68521.88;;;14.36;47.16
11692;BME280;33659;42.672;23.354;2024-03-29T05:30:46;68540.34;;;14.53;47.03
11692;BME280;33659;42.672;23.354;2024-03-29T05:33:14;68562.59;;;14.74;45.97
11692;BME280;33659;42.672;23.354;2024-03-29T05:35:41;68578.91;;;14.89;45.92
11692;BME280;33659;42.672;23.354;2024-03-29T05:38:07;68595.72;;;15.05;45.66
11692;BME280;33659;42.672;23.354;2024-03-29T05:40:34;68613.09;;;15.22;45.99
11692;BME280;33659;42.672;23.354;2024-03-29T05:43:01;68623.53;;;15.34;45.69
11692;BME280;33659;42.672;23.354;2024-03-29T05:45:28;68633.75;;;15.41;45.04
11692;BME280;33659;42.672;23.354;2024-03-29T05:47:57;68627.31;;;15.37;44.85
11692;BME280;33659;42.672;23.354;2024-03-29T05:50:25;68646.78;;;15.53;44.36
11692;BME280;33659;42.672;23.354;2024-03-29T05:52:52;68641.34;;;15.48;44.62
11692;BME280;33659;42.672;23.354;2024-03-29T05:55:19;68647.88;;;15.54;44.59
11692;BME280;33659;42.672;23.354;2024-03-29T05:57:45;68660.94;;;15.66;47.26
11692;BME280;33659;42.672;23.354;2024-03-29T06:00:14;68680.38;;;15.82;47.19
11692;BME280;33659;42.672;23.354;2024-03-29T06:02:41;68688.63;;;15.92;46.89
11692;BME280;33659;42.672;23.354;2024-03-29T06:05:08;68705.47;;;16.08;44.43
11692;BME280;33659;42.672;23.354;2024-03-29T06:07:37;68696.22;;;16.00;45.51
11692;BME280;33659;42.672;23.354;2024-03-29T06:10:04;68707.09;;;16.10;45.80
11692;BME280;33659;42.672;23.354;2024-03-29T06:12:31;68715.78;;;16.18;44.47
11692;BME280;33659;42.672;23.354;2024-03-29T06:14:58;68709.28;;;16.12;44.71
11692;BME280;33659;42.672;23.354;2024-03-29T06:17:43;68692.00;;;15.98;45.73
11692;BME280;33659;42.672;23.354;2024-03-29T06:20:10;68692.41;;;15.96;45.09
11692;BME280;33659;42.672;23.354;2024-03-29T06:22:38;68690.34;;;15.96;45.18
11692;BME280;33659;42.672;23.354;2024-03-29T06:25:05;68695.78;;;16.02;46.16
11692;BME280;33659;42.672;23.354;2024-03-29T06:27:32;68694.06;;;15.97;45.43
11692;BME280;33659;42.672;23.354;2024-03-29T06:29:59;68702.75;;;16.06;44.94
11692;BME280;33659;42.672;23.354;2024-03-29T06:32:26;68715.78;;;16.18;45.27
11692;BME280;33659;42.672;23.354;2024-03-29T06:34:53;68722.31;;;16.24;44.42
11692;BME280;33659;42.672;23.354;2024-03-29T06:37:19;68729.91;;;16.31;45.13
11692;BME280;33659;42.672;23.354;2024-03-29T06:39:48;68749.59;;;16.52;44.91
11692;BME280;33659;42.672;23.354;2024-03-29T06:42:15;68741.31;;;16.42;44.83
11692;BME280;33659;42.672;23.354;2024-03-29T06:44:42;68751.13;;;16.51;45.35
11692;BME280;33659;42.672;23.354;2024-03-29T06:47:09;68756.56;;;16.56;43.98
11692;BME280;33659;42.672;23.354;2024-03-29T06:49:36;68762.63;;;16.64;43.76
11692;BME280;33659;42.672;23.354;2024-03-29T06:52:03;68778.31;;;16.76;43.87
11692;BME280;33659;42.672;23.354;2024-03-29T06:54:30;68777.66;;;16.73;42.54
11692;BME280;33659;42.672;23.354;2024-03-29T06:56:59;68779.84;;;16.75;42.81
11692;BME280;33659;42.672;23.354;2024-03-29T06:59:26;68783.22;;;16.81;43.46
11692;BME280;33659;42.672;23.354;2024-03-29T07:01:53;68794.94;;;16.87;42.53
11692;BME280;33659;42.672;23.354;2024-03-29T07:04:20;68791.91;;;16.89;43.28
11692;BME280;33659;42.672;23.354;2024-03-29T07:06:47;68802.22;;;16.99;42.29
11692;BME280;33659;42.672;23.354;2024-03-29T07:09:17;68791.91;;;16.89;42.38
11692;BME280;33659;42.672;23.354;2024-03-29T07:11:45;68798.31;;;16.93;42.71
11692;BME280;33659;42.672;23.354;2024-03-29T07:14:14;68806.59;;;17.03;42.78
11692;BME280;33659;42.672;23.354;2024-03-29T07:16:41;68808.66;;;17.02;42.70
11692;BME280;33659;42.672;23.354;2024-03-29T07:19:07;68814.72;;;17.11;42.09
11692;BME280;33659;42.672;23.354;2024-03-29T07:21:34;68800.69;;;17.00;42.49
11692;BME280;33659;42.672;23.354;2024-03-29T07:24:01;68813.09;;;17.09;42.59
11692;BME280;33659;42.672;23.354;2024-03-29T07:26:27;68816.38;;;17.12;42.12
11692;BME280;33659;42.672;23.354;2024-03-29T07:28:54;68814.66;;;17.08;41.95
11692;BME280;33659;42.672;23.354;2024-03-29T07:31:22;68812.03;;;17.08;42.67
11692;BME280;33659;42.672;23.354;2024-03-29T07:33:49;68818.56;;;17.14;42.44
11692;BME280;33659;42.672;23.354;2024-03-29T07:36:15;68827.16;;;17.20;42.83
11692;BME280;33659;42.672;23.354;2024-03-29T07:38:42;68827.25;;;17.22;42.54
11692;BME280;33659;42.672;23.354;2024-03-29T07:41:09;68834.31;;;17.29;41.97
11692;BME280;33659;42.672;23.354;2024-03-29T07:43:40;68833.78;;;17.28;41.55
11692;BME280;33659;42.672;23.354;2024-03-29T07:46:07;68823.34;;;17.16;42.40
11692;BME280;33659;42.672;23.354;2024-03-29T07:48:35;68831.59;;;17.26;41.75
11692;BME280;33659;42.672;23.354;2024-03-29T07:51:02;68827.78;;;17.23;41.46
11692;BME280;33659;42.672;23.354;2024-03-29T07:53:29;68854.44;;;17.48;41.53
11692;BME280;33659;42.672;23.354;2024-03-29T07:55:56;68869.66;;;17.62;41.28
11692;BME280;33659;42.672;23.354;2024-03-29T07:58:22;68881.66;;;17.73;41.58
11692;BME280;33659;42.672;23.354;2024-03-29T08:00:50;68884.91;;;17.76;41.07
11692;BME280;33659;42.672;23.354;2024-03-29T08:03:17;68883.19;;;17.72;41.32
11692;BME280;33659;42.672;23.354;2024-03-29T08:05:57;68895.25;;;17.86;41.28
11692;BME280;33659;42.672;23.354;2024-03-29T08:08:24;68906.03;;;17.94;40.82
11692;BME280;33659;42.672;23.354;2024-03-29T08:10:52;68915.81;;;18.03;41.14
11692;BME280;33659;42.672;23.354;2024-03-29T08:13:19;68896.25;;;17.84;41.65
11692;BME280;33659;42.672;23.354;2024-03-29T08:15:47;68920.19;;;18.07;42.29
11692;BME280;33659;42.672;23.354;2024-03-29T08:18:14;68937.59;;;18.23;40.33
11692;BME280;33659;42.672;23.354;2024-03-29T08:20:41;68941.94;;;18.27;40.17
11692;BME280;33659;42.672;23.354;2024-03-29T08:23:09;68940.84;;;18.26;40.39
11692;BME280;33659;42.672;23.354;2024-03-29T08:25:37;68932.78;;;18.21;40.55
11692;BME280;33659;42.672;23.354;2024-03-29T08:28:04;68936.06;;;18.24;40.28
11692;BME280;33659;42.672;23.354;2024-03-29T08:30:30;68938.69;;;18.24;40.36
11692;BME280;33659;42.672;23.354;2024-03-29T08:33:00;68945.31;;;18.33;39.85
11692;BME280;33659;42.672;23.354;2024-03-29T08:35:28;68945.22;;;18.30;39.75
11692;BME280;33659;42.672;23.354;2024-03-29T08:37:55;68935.53;;;18.24;39.97
11692;BME280;33659;42.672;23.354;2024-03-29T08:40:23;68944.13;;;18.29;39.68
11692;BME280;33659;42.672;23.354;2024-03-29T08:42:50;68937.16;;;18.25;39.64
11692;BME280;33659;42.672;23.354;2024-03-29T08:45:17;68944.22;;;18.32;39.65
11692;BME280;33659;42.672;23.354;2024-03-29T08:47:43;68946.94;;;18.34;39.51
11692;BME280;33659;42.672;23.354;2024-03-29T08:50:10;68955.00;;;18.39;39.90
11692;BME280;33659;42.672;23.354;2024-03-29T08:52:38;68959.47;;;18.46;40.01
11692;BME280;33659;42.672;23.354;2024-03-29T08:55:05;68965.44;;;18.52;39.48
11692;BME280;33659;42.672;23.354;2024-03-29T08:57:33;68967.06;;;18.53;39.67
11692;BME280;33659;42.672;23.354;2024-03-29T09:00:00;68983.88;;;18.66;39.25
11692;BME280;33659;42.672;23.354;2024-03-29T09:02:28;68994.31;;;18.79;38.95
11692;BME280;33659;42.672;23.354;2024-03-29T09:04:55;69007.38;;;18.91;38.57
11692;BME280;33659;42.672;23.354;2024-03-29T09:07:22;69011.09;;;18.92;38.89
11692;BME280;33659;42.672;23.354;2024-03-29T09:09:49;69018.34;;;19.04;38.54
11692;BME280;33659;42.672;23.354;2024-03-29T09:12:16;69022.53;;;19.03;37.94
11692;BME280;33659;42.672;23.354;2024-03-29T09:14:44;69026.25;;;19.04;36.93
11692;BME280;33659;42.672;23.354;2024-03-29T09:17:11;69033.50;;;19.15;37.27
11692;BME280;33659;42.672;23.354;2024-03-29T09:19:38;69042.69;;;19.21;37.73
11692;BME280;33659;42.672;23.354;2024-03-29T09:22:05;69045.38;;;19.24;35.42
11692;BME280;33659;42.672;23.354;2024-03-29T09:24:32;69035.16;;;19.17;34.98
11692;BME280;33659;42.672;23.354;2024-03-29T09:26:59;69033.44;;;19.13;34.98
11692;BME280;33659;42.672;23.354;2024-03-29T09:29:26;69041.69;;;19.23;34.51
11692;BME280;33659;42.672;23.354;2024-03-29T09:31:54;69057.38;;;19.35;34.80
11692;BME280;33659;42.672;23.354;2024-03-29T09:34:21;69068.72;;;19.43;34.92
11692;BME280;33659;42.672;23.354;2024-03-29T09:36:48;69077.00;;;19.54;33.96
11692;BME280;33659;42.672;23.354;2024-03-29T09:39:15;69086.81;;;19.63;33.90
11692;BME280;33659;42.672;23.354;2024-03-29T09:41:44;69093.78;;;19.67;36.29
11692;BME280;33659;42.672;23.354;2024-03-29T09:44:11;69092.34;;;19.70;34.10
11692;BME280;33659;42.672;23.354;2024-03-29T09:46:38;69101.44;;;19.74;33.37
11692;BME280;33659;42.672;23.354;2024-03-29T09:49:07;69101.63;;;19.79;33.95
11692;BME280;33659;42.672;23.354;2024-03-29T09:51:34;69098.88;;;19.77;33.82
11692;BME280;33659;42.672;23.354;2024-03-29T09:54:01;69103.78;;;19.81;34.05
11692;BME280;33659;42.672;23.354;2024-03-29T09:56:30;69111.41;;;19.88;33.59
11692;BME280;33659;42.672;23.354;2024-03-29T09:58:57;69057.16;;;20.01;34.18
11692;BME280;33659;42.672;23.354;2024-03-29T10:01:23;69140.19;;;20.13;34.30
11692;BME280;33659;42.672;23.354;2024-03-29T10:03:50;69151.66;;;20.23;33.89
11692;BME280;33659;42.672;23.354;2024-03-29T10:06:23;69157.06;;;20.28;34.28
11692;BME280;33659;42.672;23.354;2024-03-29T10:08:50;69174.44;;;20.42;34.42
11692;BME280;33659;42.672;23.354;2024-03-29T10:11:20;69185.34;;;20.52;33.86
11692;BME280;33659;42.672;23.354;2024-03-29T10:13:46;69198.97;;;20.65;33.53
11692;BME280;33659;42.672;23.354;2024-03-29T10:16:13;69208.88;;;20.77;33.38
11692;BME280;33659;42.672;23.354;2024-03-29T10:18:43;69224.59;;;20.89;33.10
11692;BME280;33659;42.672;23.354;2024-03-29T10:21:10;69237.16;;;21.01;32.88
11692;BME280;33659;42.672;23.354;2024-03-29T10:23:38;69241.59;;;21.07;32.78
11692;BME280;33659;42.672;23.354;2024-03-29T10:26:05;69244.31;;;21.10;32.75
11692;BME280;33659;42.672;23.354;2024-03-29T10:28:33;69247.13;;;21.15;32.89
11692;BME280;33659;42.672;23.354;2024-03-29T10:31:01;69244.97;;;21.13;32.69
11692;BME280;33659;42.672;23.354;2024-03-29T10:33:28;69261.88;;;21.29;32.40
11692;BME280;33659;42.672;23.354;2024-03-29T10:35:56;69278.22;;;21.44;31.99
11692;BME280;33659;42.672;23.354;2024-03-29T10:38:24;69296.16;;;21.58;32.35
11692;BME280;33659;42.672;23.354;2024-03-29T10:40:53;69303.78;;;21.66;32.47
11692;BME280;33659;42.672;23.354;2024-03-29T10:43:20;69311.88;;;21.71;32.01
11692;BME280;33659;42.672;23.354;2024-03-29T10:45:47;69263.59;;;21.95;32.15
11692;BME280;33659;42.672;23.354;2024-03-29T10:48:16;69278.78;;;22.06;32.54
11692;BME280;33659;42.672;23.354;2024-03-29T10:50:44;69361.00;;;22.16;32.44
11692;BME280;33659;42.672;23.354;2024-03-29T10:53:12;69374.72;;;22.32;31.98
11692;BME280;33659;42.672;23.354;2024-03-29T10:55:42;69380.72;;;22.37;32.14
11692;BME280;33659;42.672;23.354;2024-03-29T10:58:11;69393.72;;;22.47;31.85
11692;BME280;33659;42.672;23.354;2024-03-29T11:00:45;69332.84;;;22.59;31.64
11692;BME280;33659;42.672;23.354;2024-03-29T11:03:18;69396.00;;;22.52;32.37
11692;BME280;33659;42.672;23.354;2024-03-29T11:05:47;69338.22;;;22.62;32.80
11692;BME280;33659;42.672;23.354;2024-03-29T11:08:19;69416.19;;;22.70;31.47
11692;BME280;33659;42.672;23.354;2024-03-29T11:10:49;69435.22;;;22.86;31.71
11692;BME280;33659;42.672;23.354;2024-03-29T11:13:22;69441.22;;;22.91;31.51
11692;BME280;33659;42.672;23.354;2024-03-29T11:15:51;69445.69;;;22.98;31.21
11692;BME280;33659;42.672;23.354;2024-03-29T11:18:19;69445.63;;;22.95;31.76
11692;BME280;33659;42.672;23.354;2024-03-29T11:20:47;69444.59;;;22.97;30.90
11692;BME280;33659;42.672;23.354;2024-03-29T11:23:17;69457.72;;;23.09;31.58
11692;BME280;33659;42.672;23.354;2024-03-29T11:25:46;69470.16;;;23.18;31.33
11692;BME280;33659;42.672;23.354;2024-03-29T11:28:15;69484.94;;;23.32;32.18
11692;BME280;33659;42.672;23.354;2024-03-29T11:30:49;69495.94;;;23.45;30.90
11692;BME280;33659;42.672;23.354;2024-03-29T11:33:27;69434.84;;;23.55;30.64
11692;BME280;33659;42.672;23.354;2024-03-29T11:35:55;69518.25;;;23.63;30.84
11692;BME280;33659;42.672;23.354;2024-03-29T11:38:21;69533.56;;;23.77;30.75
11692;BME280;33659;42.672;23.354;2024-03-29T11:41:01;69553.75;;;23.96;30.67
11692;BME280;33659;42.672;23.354;2024-03-29T11:43:28;69562.03;;;24.07;30.42
11692;BME280;33659;42.672;23.354;2024-03-29T11:45:57;69507.88;;;24.20;30.14
11692;BME280;33659;42.672;23.354;2024-03-29T11:48:27;69584.34;;;24.25;30.31
11692;BME280;33659;42.672;23.354;2024-03-29T11:50:54;69596.94;;;24.37;30.20
11692;BME280;33659;42.672;23.354;2024-03-29T11:53:21;69603.56;;;24.45;29.95
11692;BME280;33659;42.672;23.354;2024-03-29T11:55:48;69527.19;;;24.43;30.32
11692;BME280;33659;42.672;23.354;2024-03-29T11:58:19;69618.16;;;24.54;30.27
11692;BME280;33659;42.672;23.354;2024-03-29T12:00:46;69626.97;;;24.65;29.99
11692;BME280;33659;42.672;23.354;2024-03-29T12:03:15;69619.88;;;24.58;29.99
11692;BME280;33659;42.672;23.354;2024-03-29T12:05:43;69552.34;;;24.69;30.85
11692;BME280;33659;42.672;23.354;2024-03-29T12:08:10;69571.31;;;24.82;30.30
11692;BME280;33659;42.672;23.354;2024-03-29T12:10:37;69669.06;;;25.04;30.40
11692;BME280;33659;42.672;23.354;2024-03-29T12:13:04;69680.56;;;25.15;29.45
11692;BME280;33659;42.672;23.354;2024-03-29T12:15:31;69616.72;;;25.27;29.65
11692;BME280;33659;42.672;23.354;2024-03-29T12:17:59;69640.03;;;25.44;29.17
11692;BME280;33659;42.672;23.354;2024-03-29T12:20:28;69656.44;;;25.59;29.48
11692;BME280;33659;42.672;23.354;2024-03-29T12:22:55;69735.78;;;25.66;29.04
11692;BME280;33659;42.672;23.354;2024-03-29T12:25:22;69670.66;;;25.72;29.17
11692;BME280;33659;42.672;23.354;2024-03-29T12:27:49;69748.31;;;25.75;29.32
11692;BME280;33659;42.672;23.354;2024-03-29T12:30:16;69654.81;;;25.57;29.02
11692;BME280;33659;42.672;23.354;2024-03-29T12:32:44;69738.53;;;25.69;28.76
11692;BME280;33659;42.672;23.354;2024-03-29T12:35:11;69688.13;;;25.88;29.10
11692;BME280;33659;42.672;23.354;2024-03-29T12:37:47;69700.69;;;26.00;28.91
11692;BME280;33659;42.672;23.354;2024-03-29T12:40:15;69774.09;;;26.02;28.38
11692;BME280;33659;42.672;23.354;2024-03-29T12:42:47;69782.84;;;26.10;28.04
11692;BME280;33659;42.672;23.354;2024-03-29T12:45:14;69724.66;;;26.20;27.88
11692;BME280;33659;42.672;23.354;2024-03-29T12:47:41;69726.94;;;26.25;27.97
11692;BME280;33659;42.672;23.354;2024-03-29T12:50:09;69724.34;;;26.27;27.67